sensor_id;sensor_type;location;lat;lon;timestamp;pressure;altitude;pressure_sealevel;temperature;humidity
15914;BME280;8055;51.930;8.840;2023-01-25T00:01:44;78989.84;;;-145.72;100.00
15914;BME280;8055;51.930;8.840;2023-01-25T00:04:09;78987.75;;;-145.72;100.00
15914;BME280;8055;51.930;8.840;2023-01-25T00:06:35;78985.69;;;-145.72;100.00
15914;BME280;8055;51.930;8.840;2023-01-25T00:09:00;78983.63;;;-145.72;100.00
15914;BME280;8055;51.930;8.840;2023-01-25T00:11:26;78987.75;;;-145.72;100.00
15914;BME280;8055;51.930;8.840;2023-01-25T00:13:55;78985.69;;;-145.72;100.00
15914;BME280;8055;51.930;8.840;2023-01-25T00:16:21;78987.75;;;-145.72;100.00
15914;BME280;8055;51.930;8.840;2023-01-25T00:18:47;78981.56;;;-145.72;100.00
15914;BME280;8055;51.930;8.840;2023-01-25T00:21:13;78985.69;;;-145.72;100.00
15914;BME280;8055;51.930;8.840;2023-01-25T00:23:39;78979.47;;;-145.72;100.00
15914;BME280;8055;51.930;8.840;2023-01-25T00:26:04;78975.34;;;-145.72;100.00
15914;BME280;8055;51.930;8.840;2023-01-25T00:28:29;78975.34;;;-145.72;100.00
15914;BME280;8055;51.930;8.840;2023-01-25T00:36:50;78962.91;;;-145.72;100.00
15914;BME280;8055;51.930;8.840;2023-01-25T00:39:16;78967.06;;;-145.72;100.00
15914;BME280;8055;51.930;8.840;2023-01-25T00:41:42;78956.69;;;-145.72;100.00
15914;BME280;8055;51.930;8.840;2023-01-25T00:44:08;78952.56;;;-145.72;100.00
15914;BME280;8055;51.930;8.840;2023-01-25T00:46:34;78954.63;;;-145.72;100.00
15914;BME280;8055;51.930;8.840;2023-01-25T00:48:59;78960.84;;;-145.72;100.00
15914;BME280;8055;51.930;8.840;2023-01-25T00:51:24;78962.91;;;-145.72;100.00
15914;BME280;8055;51.930;8.840;2023-01-25T00:53:50;78956.69;;;-145.72;100.00
15914;BME280;8055;51.930;8.840;2023-01-25T00:56:15;78946.34;;;-145.72;100.00
15914;BME280;8055;51.930;8.840;2023-01-25T00:58:41;78950.50;;;-145.72;100.00
15914;BME280;8055;51.930;8.840;2023-01-25T01:01:07;78948.41;;;-145.72;100.00
15914;BME280;8055;51.930;8.840;2023-01-25T01:03:32;78946.34;;;-145.72;100.00
15914;BME280;8055;51.930;8.840;2023-01-25T01:06:06;78942.22;;;-145.72;100.00
15914;BME280;8055;51.930;8.840;2023-01-25T01:08:33;78944.28;;;-145.72;100.00
15914;BME280;8055;51.930;8.840;2023-01-25T01:11:00;78944.28;;;-145.72;100.00
15914;BME280;8055;51.930;8.840;2023-01-25T01:13:26;78948.41;;;-145.72;100.00
15914;BME280;8055;51.930;8.840;2023-01-25T01:22:22;78954.63;;;-145.72;100.00
15914;BME280;8055;51.930;8.840;2023-01-25T01:24:47;78956.69;;;-145.72;100.00
15914;BME280;8055;51.930;8.840;2023-01-25T01:27:13;78958.78;;;-145.72;100.00
15914;BME280;8055;51.930;8.840;2023-01-25T01:29:38;78944.28;;;-145.72;100.00
15914;BME280;8055;51.930;8.840;2023-01-25T01:32:04;78944.28;;;-145.72;100.00
15914;BME280;8055;51.930;8.840;2023-01-25T01:34:29;78944.28;;;-145.72;100.00
15914;BME280;8055;51.930;8.840;2023-01-25T01:36:55;78940.13;;;-145.72;100.00
15914;BME280;8055;51.930;8.840;2023-01-25T01:39:21;78942.22;;;-145.72;100.00
15914;BME280;8055;51.930;8.840;2023-01-25T01:41:46;78942.22;;;-145.72;100.00
15914;BME280;8055;51.930;8.840;2023-01-25T01:44:17;78942.22;;;-145.72;100.00
15914;BME280;8055;51.930;8.840;2023-01-25T01:46:48;78948.41;;;-145.72;100.00
15914;BME280;8055;51.930;8.840;2023-01-25T01:51:44;78946.34;;;-145.72;100.00
15914;BME280;8055;51.930;8.840;2023-01-25T01:54:26;78950.50;;;-145.72;100.00
15914;BME280;8055;51.930;8.840;2023-01-25T01:57:00;78950.50;;;-145.72;100.00
15914;BME280;8055;51.930;8.840;2023-01-25T01:59:43;78954.63;;;-145.72;100.00
15914;BME280;8055;51.930;8.840;2023-01-25T02:02:13;78948.41;;;-145.72;100.00
15914;BME280;8055;51.930;8.840;2023-01-25T02:04:39;78950.50;;;-145.72;100.00
15914;BME280;8055;51.930;8.840;2023-01-25T02:07:12;78948.41;;;-145.72;100.00
15914;BME280;8055;51.930;8.840;2023-01-25T02:09:40;78952.56;;;-145.72;100.00
15914;BME280;8055;51.930;8.840;2023-01-25T02:12:06;78942.22;;;-145.72;100.00
15914;BME280;8055;51.930;8.840;2023-01-25T02:14:33;78942.22;;;-145.72;100.00
15914;BME280;8055;51.930;8.840;2023-01-25T02:16:59;78938.06;;;-145.72;100.00
15914;BME280;8055;51.930;8.840;2023-01-25T02:21:59;78933.91;;;-145.72;100.00
15914;BME280;8055;51.930;8.840;2023-01-25T02:24:32;78929.78;;;-145.72;100.00
15914;BME280;8055;51.930;8.840;2023-01-25T02:26:58;78925.63;;;-145.72;100.00
15914;BME280;8055;51.930;8.840;2023-01-25T02:29:25;78936.00;;;-145.72;100.00
15914;BME280;8055;51.930;8.840;2023-01-25T02:32:03;78938.06;;;-145.72;100.00
15914;BME280;8055;51.930;8.840;2023-01-25T02:34:29;78933.91;;;-145.72;100.00
15914;BME280;8055;51.930;8.840;2023-01-25T02:36:54;78931.84;;;-145.72;100.00
15914;BME280;8055;51.930;8.840;2023-01-25T02:39:20;78933.91;;;-145.72;100.00
15914;BME280;8055;51.930;8.840;2023-01-25T02:41:48;78931.84;;;-145.72;100.00
15914;BME280;8055;51.930;8.840;2023-01-25T02:44:20;78927.72;;;-145.72;100.00
15914;BME280;8055;51.930;8.840;2023-01-25T02:46:47;78936.00;;;-145.72;100.00
15914;BME280;8055;51.930;8.840;2023-01-25T02:49:13;78933.91;;;-145.72;100.00
15914;BME280;8055;51.930;8.840;2023-01-25T02:51:41;78929.78;;;-145.72;100.00
15914;BME280;8055;51.930;8.840;2023-01-25T02:54:09;78921.50;;;-145.72;100.00
15914;BME280;8055;51.930;8.840;2023-01-25T02:56:35;78921.50;;;-145.72;100.00
15914;BME280;8055;51.930;8.840;2023-01-25T02:59:02;78915.28;;;-145.72;100.00
15914;BME280;8055;51.930;8.840;2023-01-25T03:01:32;78909.06;;;-145.72;100.00
15914;BME280;8055;51.930;8.840;2023-01-25T03:03:57;78911.16;;;-145.72;100.00
15914;BME280;8055;51.930;8.840;2023-01-25T03:06:23;78909.06;;;-145.72;100.00
15914;BME280;8055;51.930;8.840;2023-01-25T03:08:48;78902.88;;;-145.72;100.00
15914;BME280;8055;51.930;8.840;2023-01-25T03:11:14;78902.88;;;-145.72;100.00
15914;BME280;8055;51.930;8.840;2023-01-25T03:13:39;78898.72;;;-145.72;100.00
15914;BME280;8055;51.930;8.840;2023-01-25T03:16:08;78896.66;;;-145.72;100.00
15914;BME280;8055;51.930;8.840;2023-01-25T03:18:34;78894.56;;;-145.72;100.00
15914;BME280;8055;51.930;8.840;2023-01-25T03:21:07;78898.72;;;-145.72;100.00
15914;BME280;8055;51.930;8.840;2023-01-25T03:23:33;78904.94;;;-145.72;100.00
15914;BME280;8055;51.930;8.840;2023-01-25T03:26:12;78907.00;;;-145.72;100.00
15914;BME280;8055;51.930;8.840;2023-01-25T03:28:39;78913.22;;;-145.72;100.00
15914;BME280;8055;51.930;8.840;2023-01-25T03:31:06;78915.28;;;-145.72;100.00
15914;BME280;8055;51.930;8.840;2023-01-25T03:33:32;78909.06;;;-145.72;100.00
15914;BME280;8055;51.930;8.840;2023-01-25T03:35:57;78913.22;;;-145.72;100.00
15914;BME280;8055;51.930;8.840;2023-01-25T03:38:23;78915.28;;;-145.72;100.00
15914;BME280;8055;51.930;8.840;2023-01-25T03:40:49;78902.88;;;-145.72;100.00
15914;BME280;8055;51.930;8.840;2023-01-25T03:43:14;78913.22;;;-145.72;100.00
15914;BME280;8055;51.930;8.840;2023-01-25T03:45:40;78907.00;;;-145.72;100.00
15914;BME280;8055;51.930;8.840;2023-01-25T03:48:06;78911.16;;;-145.72;100.00
15914;BME280;8055;51.930;8.840;2023-01-25T03:50:32;78911.16;;;-145.72;100.00
15914;BME280;8055;51.930;8.840;2023-01-25T03:52:57;78911.16;;;-145.72;100.00
15914;BME280;8055;51.930;8.840;2023-01-25T03:55:27;78911.16;;;-145.72;100.00
15914;BME280;8055;51.930;8.840;2023-01-25T03:57:53;78904.94;;;-145.72;100.00
15914;BME280;8055;51.930;8.840;2023-01-25T04:00:19;78904.94;;;-145.72;100.00
15914;BME280;8055;51.930;8.840;2023-01-25T04:02:45;78907.00;;;-145.72;100.00
15914;BME280;8055;51.930;8.840;2023-01-25T04:05:11;78902.88;;;-145.72;100.00
15914;BME280;8055;51.930;8.840;2023-01-25T04:07:36;78896.66;;;-145.72;100.00
15914;BME280;8055;51.930;8.840;2023-01-25T04:10:02;78890.44;;;-145.72;100.00
15914;BME280;8055;51.930;8.840;2023-01-25T04:12:27;78888.38;;;-145.72;100.00
15914;BME280;8055;51.930;8.840;2023-01-25T04:14:53;78890.44;;;-145.72;100.00
15914;BME280;8055;51.930;8.840;2023-01-25T04:17:18;78886.28;;;-145.72;100.00
15914;BME280;8055;51.930;8.840;2023-01-25T04:19:44;78878.00;;;-145.72;100.00
15914;BME280;8055;51.930;8.840;2023-01-25T04:22:09;78875.94;;;-145.72;100.00
15914;BME280;8055;51.930;8.840;2023-01-25T04:24:34;78878.00;;;-145.72;100.00
15914;BME280;8055;51.930;8.840;2023-01-25T04:27:00;78878.00;;;-145.72;100.00
15914;BME280;8055;51.930;8.840;2023-01-25T04:29:25;78871.78;;;-145.72;100.00
15914;BME280;8055;51.930;8.840;2023-01-25T04:31:50;78875.94;;;-145.72;100.00
15914;BME280;8055;51.930;8.840;2023-01-25T04:34:16;78875.94;;;-145.72;100.00
15914;BME280;8055;51.930;8.840;2023-01-25T04:36:41;78869.72;;;-145.72;100.00
15914;BME280;8055;51.930;8.840;2023-01-25T04:39:06;78871.78;;;-145.72;100.00
15914;BME280;8055;51.930;8.840;2023-01-25T04:41:32;78873.88;;;-145.72;100.00
15914;BME280;8055;51.930;8.840;2023-01-25T04:43:57;78869.72;;;-145.72;100.00
15914;BME280;8055;51.930;8.840;2023-01-25T04:46:22;78867.66;;;-145.72;100.00
15914;BME280;8055;51.930;8.840;2023-01-25T04:48:48;78865.59;;;-145.72;100.00
15914;BME280;8055;51.930;8.840;2023-01-25T04:51:13;78863.50;;;-145.72;100.00
15914;BME280;8055;51.930;8.840;2023-01-25T04:53:39;78871.78;;;-145.72;100.00
15914;BME280;8055;51.930;8.840;2023-01-25T04:56:04;78865.59;;;-145.72;100.00
15914;BME280;8055;51.930;8.840;2023-01-25T04:58:30;78867.66;;;-145.72;100.00
15914;BME280;8055;51.930;8.840;2023-01-25T05:00:59;78865.59;;;-145.72;100.00
15914;BME280;8055;51.930;8.840;2023-01-25T05:03:25;78865.59;;;-145.72;100.00
15914;BME280;8055;51.930;8.840;2023-01-25T05:05:51;78863.50;;;-145.72;100.00
15914;BME280;8055;51.930;8.840;2023-01-25T05:08:16;78871.78;;;-145.72;100.00
15914;BME280;8055;51.930;8.840;2023-01-25T05:10:42;78882.16;;;-145.72;100.00
15914;BME280;8055;51.930;8.840;2023-01-25T05:13:08;78886.28;;;-145.72;100.00
15914;BME280;8055;51.930;8.840;2023-01-25T05:15:33;78882.16;;;-145.72;100.00
15914;BME280;8055;51.930;8.840;2023-01-25T05:17:58;78882.16;;;-145.72;100.00
15914;BME280;8055;51.930;8.840;2023-01-25T05:20:24;78875.94;;;-145.72;100.00
15914;BME280;8055;51.930;8.840;2023-01-25T05:22:49;78875.94;;;-145.72;100.00
15914;BME280;8055;51.930;8.840;2023-01-25T05:25:15;78869.72;;;-145.72;100.00
15914;BME280;8055;51.930;8.840;2023-01-25T05:27:58;78857.31;;;-145.72;100.00
15914;BME280;8055;51.930;8.840;2023-01-25T05:30:24;78857.31;;;-145.72;100.00
15914;BME280;8055;51.930;8.840;2023-01-25T05:32:49;78863.50;;;-145.72;100.00
15914;BME280;8055;51.930;8.840;2023-01-25T05:35:15;78865.59;;;-145.72;100.00
15914;BME280;8055;51.930;8.840;2023-01-25T05:37:40;78865.59;;;-145.72;100.00
15914;BME280;8055;51.930;8.840;2023-01-25T05:40:06;78863.50;;;-145.72;100.00
15914;BME280;8055;51.930;8.840;2023-01-25T05:42:32;78855.22;;;-145.72;100.00
15914;BME280;8055;51.930;8.840;2023-01-25T05:44:57;78846.94;;;-145.72;100.00
15914;BME280;8055;51.930;8.840;2023-01-25T05:47:23;78846.94;;;-145.72;100.00
15914;BME280;8055;51.930;8.840;2023-01-25T05:49:48;78846.94;;;-145.72;100.00
15914;BME280;8055;51.930;8.840;2023-01-25T05:52:15;78846.94;;;-145.72;100.00
15914;BME280;8055;51.930;8.840;2023-01-25T05:54:41;78846.94;;;-145.72;100.00
15914;BME280;8055;51.930;8.840;2023-01-25T05:57:06;78849.03;;;-145.72;100.00
15914;BME280;8055;51.930;8.840;2023-01-25T05:59:32;78840.75;;;-145.72;100.00
15914;BME280;8055;51.930;8.840;2023-01-25T06:01:57;78842.81;;;-145.72;100.00
15914;BME280;8055;51.930;8.840;2023-01-25T06:04:22;78842.81;;;-145.72;100.00
15914;BME280;8055;51.930;8.840;2023-01-25T06:06:48;78840.75;;;-145.72;100.00
15914;BME280;8055;51.930;8.840;2023-01-25T06:09:13;78842.81;;;-145.72;100.00
15914;BME280;8055;51.930;8.840;2023-01-25T06:11:42;78836.59;;;-145.72;100.00
15914;BME280;8055;51.930;8.840;2023-01-25T06:14:07;78832.44;;;-145.72;100.00
15914;BME280;8055;51.930;8.840;2023-01-25T06:16:32;78846.94;;;-145.72;100.00
15914;BME280;8055;51.930;8.840;2023-01-25T06:18:58;78844.88;;;-145.72;100.00
15914;BME280;8055;51.930;8.840;2023-01-25T06:21:23;78844.88;;;-145.72;100.00
15914;BME280;8055;51.930;8.840;2023-01-25T06:23:49;78849.03;;;-145.72;100.00
15914;BME280;8055;51.930;8.840;2023-01-25T06:26:14;78846.94;;;-145.72;100.00
15914;BME280;8055;51.930;8.840;2023-01-25T06:28:40;78857.31;;;-145.72;100.00
15914;BME280;8055;51.930;8.840;2023-01-25T06:31:16;78855.22;;;-145.72;100.00
15914;BME280;8055;51.930;8.840;2023-01-25T06:33:46;78844.88;;;-145.72;100.00
15914;BME280;8055;51.930;8.840;2023-01-25T06:36:15;78853.16;;;-145.72;100.00
15914;BME280;8055;51.930;8.840;2023-01-25T06:38:41;78851.09;;;-145.72;100.00
15914;BME280;8055;51.930;8.840;2023-01-25T06:41:09;78851.09;;;-145.72;100.00
15914;BME280;8055;51.930;8.840;2023-01-25T06:43:35;78861.44;;;-145.72;100.00
15914;BME280;8055;51.930;8.840;2023-01-25T06:46:03;78855.22;;;-145.72;100.00
15914;BME280;8055;51.930;8.840;2023-01-25T06:48:30;78863.50;;;-145.72;100.00
15914;BME280;8055;51.930;8.840;2023-01-25T06:50:57;78863.50;;;-145.72;100.00
15914;BME280;8055;51.930;8.840;2023-01-25T06:53:27;78861.44;;;-145.72;100.00
15914;BME280;8055;51.930;8.840;2023-01-25T06:56:01;78865.59;;;-145.72;100.00
15914;BME280;8055;51.930;8.840;2023-01-25T06:58:28;78878.00;;;-145.72;100.00
15914;BME280;8055;51.930;8.840;2023-01-25T07:01:02;78863.50;;;-145.72;100.00
15914;BME280;8055;51.930;8.840;2023-01-25T07:03:28;78865.59;;;-145.72;100.00
15914;BME280;8055;51.930;8.840;2023-01-25T07:06:04;78861.44;;;-145.72;100.00
15914;BME280;8055;51.930;8.840;2023-01-25T07:08:31;78882.16;;;-145.72;100.00
15914;BME280;8055;51.930;8.840;2023-01-25T07:10:59;78880.09;;;-145.72;100.00
15914;BME280;8055;51.930;8.840;2023-01-25T07:13:26;78873.88;;;-145.72;100.00
15914;BME280;8055;51.930;8.840;2023-01-25T07:15:57;78880.09;;;-145.72;100.00
15914;BME280;8055;51.930;8.840;2023-01-25T07:18:23;78884.22;;;-145.72;100.00
15914;BME280;8055;51.930;8.840;2023-01-25T07:20:49;78878.00;;;-145.72;100.00
15914;BME280;8055;51.930;8.840;2023-01-25T07:23:14;78880.09;;;-145.72;100.00
15914;BME280;8055;51.930;8.840;2023-01-25T07:25:47;78880.09;;;-145.72;100.00
15914;BME280;8055;51.930;8.840;2023-01-25T07:28:14;78871.78;;;-145.72;100.00
15914;BME280;8055;51.930;8.840;2023-01-25T07:30:40;78878.00;;;-145.72;100.00
15914;BME280;8055;51.930;8.840;2023-01-25T07:33:06;78869.72;;;-145.72;100.00
15914;BME280;8055;51.930;8.840;2023-01-25T07:35:32;78869.72;;;-145.72;100.00
15914;BME280;8055;51.930;8.840;2023-01-25T07:37:57;78867.66;;;-145.72;100.00
15914;BME280;8055;51.930;8.840;2023-01-25T07:40:22;78873.88;;;-145.72;100.00
15914;BME280;8055;51.930;8.840;2023-01-25T07:42:52;78880.09;;;-145.72;100.00
15914;BME280;8055;51.930;8.840;2023-01-25T07:45:18;78875.94;;;-145.72;100.00
15914;BME280;8055;51.930;8.840;2023-01-25T07:47:44;78871.78;;;-145.72;100.00
15914;BME280;8055;51.930;8.840;2023-01-25T07:50:10;78875.94;;;-145.72;100.00
15914;BME280;8055;51.930;8.840;2023-01-25T07:52:36;78869.72;;;-145.72;100.00
15914;BME280;8055;51.930;8.840;2023-01-25T07:55:01;78869.72;;;-145.72;100.00
15914;BME280;8055;51.930;8.840;2023-01-25T07:57:27;78859.38;;;-145.72;100.00
15914;BME280;8055;51.930;8.840;2023-01-25T07:59:53;78863.50;;;-145.72;100.00
15914;BME280;8055;51.930;8.840;2023-01-25T08:02:18;78865.59;;;-145.72;100.00
15914;BME280;8055;51.930;8.840;2023-01-25T08:04:44;78861.44;;;-145.72;100.00
15914;BME280;8055;51.930;8.840;2023-01-25T08:07:10;78863.50;;;-145.72;100.00
15914;BME280;8055;51.930;8.840;2023-01-25T08:09:35;78861.44;;;-145.72;100.00
15914;BME280;8055;51.930;8.840;2023-01-25T08:12:01;78859.38;;;-145.72;100.00
15914;BME280;8055;51.930;8.840;2023-01-25T08:14:26;78867.66;;;-145.72;100.00
15914;BME280;8055;51.930;8.840;2023-01-25T08:16:52;78871.78;;;-145.72;100.00
15914;BME280;8055;51.930;8.840;2023-01-25T08:19:17;78875.94;;;-145.72;100.00
15914;BME280;8055;51.930;8.840;2023-01-25T08:21:44;78873.88;;;-145.72;100.00
15914;BME280;8055;51.930;8.840;2023-01-25T08:24:10;78882.16;;;-145.72;100.00
15914;BME280;8055;51.930;8.840;2023-01-25T08:26:36;78878.00;;;-145.72;100.00
15914;BME280;8055;51.930;8.840;2023-01-25T08:29:02;78878.00;;;-145.72;100.00
15914;BME280;8055;51.930;8.840;2023-01-25T08:31:30;78871.78;;;-145.72;100.00
15914;BME280;8055;51.930;8.840;2023-01-25T08:33:56;78867.66;;;-145.72;100.00
15914;BME280;8055;51.930;8.840;2023-01-25T08:36:22;78867.66;;;-145.72;100.00
15914;BME280;8055;51.930;8.840;2023-01-25T08:38:56;78869.72;;;-145.72;100.00
15914;BME280;8055;51.930;8.840;2023-01-25T08:41:22;78863.50;;;-145.72;100.00
15914;BME280;8055;51.930;8.840;2023-01-25T08:43:50;78859.38;;;-145.72;100.00
15914;BME280;8055;51.930;8.840;2023-01-25T08:46:16;78857.31;;;-145.72;100.00
15914;BME280;8055;51.930;8.840;2023-01-25T08:48:42;78855.22;;;-145.72;100.00
15914;BME280;8055;51.930;8.840;2023-01-25T08:51:10;78849.03;;;-145.72;100.00
15914;BME280;8055;51.930;8.840;2023-01-25T08:53:36;78840.75;;;-145.72;100.00
15914;BME280;8055;51.930;8.840;2023-01-25T08:56:06;78830.38;;;-145.72;100.00
15914;BME280;8055;51.930;8.840;2023-01-25T08:58:32;78832.44;;;-145.72;100.00
15914;BME280;8055;51.930;8.840;2023-01-25T09:01:03;78826.25;;;-145.72;100.00
15914;BME280;8055;51.930;8.840;2023-01-25T09:03:29;78828.31;;;-145.72;100.00
15914;BME280;8055;51.930;8.840;2023-01-25T09:05:55;78836.59;;;-145.72;100.00
15914;BME280;8055;51.930;8.840;2023-01-25T09:08:20;78855.22;;;-145.72;100.00
15914;BME280;8055;51.930;8.840;2023-01-25T09:10:46;78855.22;;;-145.72;100.00
15914;BME280;8055;51.930;8.840;2023-01-25T09:13:11;78855.22;;;-145.72;100.00
15914;BME280;8055;51.930;8.840;2023-01-25T09:15:37;78855.22;;;-145.72;100.00
15914;BME280;8055;51.930;8.840;2023-01-25T09:18:03;78855.22;;;-145.72;100.00
15914;BME280;8055;51.930;8.840;2023-01-25T09:20:28;78857.31;;;-145.72;100.00
15914;BME280;8055;51.930;8.840;2023-01-25T09:22:54;78859.38;;;-145.72;100.00
15914;BME280;8055;51.930;8.840;2023-01-25T09:25:20;78857.31;;;-145.72;100.00
15914;BME280;8055;51.930;8.840;2023-01-25T09:27:48;78855.22;;;-145.72;100.00
15914;BME280;8055;51.930;8.840;2023-01-25T09:30:14;78853.16;;;-145.72;100.00
15914;BME280;8055;51.930;8.840;2023-01-25T09:32:39;78849.03;;;-145.72;100.00
15914;BME280;8055;51.930;8.840;2023-01-25T09:35:05;78846.94;;;-145.72;100.00
15914;BME280;8055;51.930;8.840;2023-01-25T09:37:30;78842.81;;;-145.72;100.00
15914;BME280;8055;51.930;8.840;2023-01-25T09:39:56;78822.09;;;-145.72;100.00
15914;BME280;8055;51.930;8.840;2023-01-25T09:42:24;78826.25;;;-145.72;100.00
15914;BME280;8055;51.930;8.840;2023-01-25T09:47:58;78813.81;;;-145.72;100.00
15914;BME280;8055;51.930;8.840;2023-01-25T09:50:37;78805.53;;;-145.72;100.00
15914;BME280;8055;51.930;8.840;2023-01-25T09:56:21;78788.97;;;-145.72;100.00
15914;BME280;8055;51.930;8.840;2023-01-25T09:58:50;78791.03;;;-145.72;100.00
15914;BME280;8055;51.930;8.840;2023-01-25T10:01:25;78788.97;;;-145.72;100.00
15914;BME280;8055;51.930;8.840;2023-01-25T10:03:54;78788.97;;;-145.72;100.00
15914;BME280;8055;51.930;8.840;2023-01-25T10:06:34;78782.75;;;-145.72;100.00
15914;BME280;8055;51.930;8.840;2023-01-25T10:09:11;78780.69;;;-145.72;100.00
15914;BME280;8055;51.930;8.840;2023-01-25T10:11:41;78776.53;;;-145.72;100.00
15914;BME280;8055;51.930;8.840;2023-01-25T10:14:13;78768.25;;;-145.72;100.00
15914;BME280;8055;51.930;8.840;2023-01-25T10:29:37;78772.41;;;-145.72;100.00
15914;BME280;8055;51.930;8.840;2023-01-25T10:34:51;78759.97;;;-145.72;100.00
15914;BME280;8055;51.930;8.840;2023-01-25T10:37:22;78757.91;;;-145.72;100.00
15914;BME280;8055;51.930;8.840;2023-01-25T10:42:40;78747.56;;;-145.72;100.00
15914;BME280;8055;51.930;8.840;2023-01-25T10:45:12;78747.56;;;-145.72;100.00
15914;BME280;8055;51.930;8.840;2023-01-25T10:47:41;78753.75;;;-145.72;100.00
15914;BME280;8055;51.930;8.840;2023-01-25T10:50:08;78745.47;;;-145.72;100.00
15914;BME280;8055;51.930;8.840;2023-01-25T10:52:34;78735.13;;;-145.72;100.00
15914;BME280;8055;51.930;8.840;2023-01-25T10:55:19;78722.69;;;-145.72;100.00
15914;BME280;8055;51.930;8.840;2023-01-25T10:57:53;78718.56;;;-145.72;100.00
15914;BME280;8055;51.930;8.840;2023-01-25T11:00:25;78710.28;;;-145.72;100.00
15914;BME280;8055;51.930;8.840;2023-01-25T11:02:52;78697.84;;;-145.72;100.00
15914;BME280;8055;51.930;8.840;2023-01-25T11:07:46;78689.56;;;-145.72;100.00
15914;BME280;8055;51.930;8.840;2023-01-25T11:10:33;78679.22;;;-145.72;100.00
15914;BME280;8055;51.930;8.840;2023-01-25T11:15:40;78683.34;;;-145.72;100.00
15914;BME280;8055;51.930;8.840;2023-01-25T11:18:26;78693.72;;;-145.72;100.00
15914;BME280;8055;51.930;8.840;2023-01-25T11:21:06;78689.56;;;-145.72;100.00
15914;BME280;8055;51.930;8.840;2023-01-25T11:23:34;78695.78;;;-145.72;100.00
15914;BME280;8055;51.930;8.840;2023-01-25T11:28:37;78681.28;;;-145.72;100.00
15914;BME280;8055;51.930;8.840;2023-01-25T11:31:04;78677.16;;;-145.72;100.00
15914;BME280;8055;51.930;8.840;2023-01-25T11:33:33;78681.28;;;-145.72;100.00
15914;BME280;8055;51.930;8.840;2023-01-25T11:36:02;78683.34;;;-145.72;100.00
15914;BME280;8055;51.930;8.840;2023-01-25T11:38:30;78681.28;;;-145.72;100.00
15914;BME280;8055;51.930;8.840;2023-01-25T11:41:27;78689.56;;;-145.72;100.00
15914;BME280;8055;51.930;8.840;2023-01-25T11:46:50;78699.91;;;-145.72;100.00
15914;BME280;8055;51.930;8.840;2023-01-25T11:56:59;78685.44;;;-145.72;100.00
15914;BME280;8055;51.930;8.840;2023-01-25T12:08:31;78664.72;;;-145.72;100.00
15914;BME280;8055;51.930;8.840;2023-01-25T12:19:08;78617.09;;;-145.72;100.00
15914;BME280;8055;51.930;8.840;2023-01-25T12:24:44;78623.31;;;-145.72;100.00
15914;BME280;8055;51.930;8.840;2023-01-25T12:27:39;78619.16;;;-145.72;100.00
15914;BME280;8055;51.930;8.840;2023-01-25T12:30:18;78631.59;;;-145.72;100.00
15914;BME280;8055;51.930;8.840;2023-01-25T12:32:50;78631.59;;;-145.72;100.00
15914;BME280;8055;51.930;8.840;2023-01-25T12:35:48;78631.59;;;-145.72;100.00
15914;BME280;8055;51.930;8.840;2023-01-25T12:38:25;78621.22;;;-145.72;100.00
15914;BME280;8055;51.930;8.840;2023-01-25T12:41:01;78619.16;;;-145.72;100.00
15914;BME280;8055;51.930;8.840;2023-01-25T12:43:54;78610.88;;;-145.72;100.00
15914;BME280;8055;51.930;8.840;2023-01-25T12:46:27;78623.31;;;-145.72;100.00
15914;BME280;8055;51.930;8.840;2023-01-25T12:48:58;78619.16;;;-145.72;100.00
15914;BME280;8055;51.930;8.840;2023-01-25T12:51:32;78619.16;;;-145.72;100.00
15914;BME280;8055;51.930;8.840;2023-01-25T12:53:59;78621.22;;;-145.72;100.00
15914;BME280;8055;51.930;8.840;2023-01-25T12:56:41;78621.22;;;-145.72;100.00
15914;BME280;8055;51.930;8.840;2023-01-25T12:59:24;78635.72;;;-145.72;100.00
15914;BME280;8055;51.930;8.840;2023-01-25T13:01:58;78623.31;;;-145.72;100.00
15914;BME280;8055;51.930;8.840;2023-01-25T13:07:28;78608.81;;;-145.72;100.00
15914;BME280;8055;51.930;8.840;2023-01-25T13:10:15;78610.88;;;-145.72;100.00
15914;BME280;8055;51.930;8.840;2023-01-25T13:12:50;78612.94;;;-145.72;100.00
15914;BME280;8055;51.930;8.840;2023-01-25T13:15:39;78610.88;;;-145.72;100.00
15914;BME280;8055;51.930;8.840;2023-01-25T13:18:34;78592.25;;;-145.72;100.00
15914;BME280;8055;51.930;8.840;2023-01-25T13:21:03;78594.31;;;-145.72;100.00
15914;BME280;8055;51.930;8.840;2023-01-25T13:23:36;78586.03;;;-145.72;100.00
15914;BME280;8055;51.930;8.840;2023-01-25T13:28:48;78575.69;;;-145.72;100.00
15914;BME280;8055;51.930;8.840;2023-01-25T13:34:12;78579.81;;;-145.72;100.00
15914;BME280;8055;51.930;8.840;2023-01-25T13:36:56;78577.75;;;-145.72;100.00
15914;BME280;8055;51.930;8.840;2023-01-25T13:42:28;78552.91;;;-145.72;100.00
15914;BME280;8055;51.930;8.840;2023-01-25T13:45:00;78569.47;;;-145.72;100.00
15914;BME280;8055;51.930;8.840;2023-01-25T13:47:32;78563.25;;;-145.72;100.00
15914;BME280;8055;51.930;8.840;2023-01-25T13:50:17;78561.19;;;-145.72;100.00
15914;BME280;8055;51.930;8.840;2023-01-25T13:53:03;78563.25;;;-145.72;100.00
15914;BME280;8055;51.930;8.840;2023-01-25T13:55:40;78561.19;;;-145.72;100.00
15914;BME280;8055;51.930;8.840;2023-01-25T14:01:06;78573.59;;;-145.72;100.00
15914;BME280;8055;51.930;8.840;2023-01-25T14:03:43;78581.88;;;-145.72;100.00
15914;BME280;8055;51.930;8.840;2023-01-25T14:06:23;78588.09;;;-145.72;100.00
15914;BME280;8055;51.930;8.840;2023-01-25T14:08:49;78583.97;;;-145.72;100.00
15914;BME280;8055;51.930;8.840;2023-01-25T14:11:23;78579.81;;;-145.72;100.00
15914;BME280;8055;51.930;8.840;2023-01-25T14:16:24;78586.03;;;-145.72;100.00
15914;BME280;8055;51.930;8.840;2023-01-25T14:18:51;78588.09;;;-145.72;100.00
15914;BME280;8055;51.930;8.840;2023-01-25T14:21:21;78590.19;;;-145.72;100.00
15914;BME280;8055;51.930;8.840;2023-01-25T14:23:47;78590.19;;;-145.72;100.00
15914;BME280;8055;51.930;8.840;2023-01-25T14:26:21;78602.59;;;-145.72;100.00